Wetterdaten: Woche 09.04.12 - 15.04.12 (KW15)
Datum Zeit Temp. Innen Temp. Aussen UV X Diff Temp. Feuchte Inne Feuchte Auss Sonnenschein Luftdruck Regen ab 0,1 Wind Sonnenschein T Regendauer Windben
09.04.2012 00:00 15,9 C 8,3 C 0,0 UV-I 0,0 C 40 % 64 % 0 % 1009,4 hPa 0,0 l/m 4,5 km/h (1 Bft) 0,00 h 0,00 h 9,5 km/h (2 Bft)
09.04.2012 01:00 15,8 C 8,4 C 0,0 UV-I 0,0 C 40 % 68 % 0 % 1008,9 hPa 0,0 l/m 7,8 km/h (2 Bft) 0,00 h 0,03 h 15,7 km/h (3 Bft)
09.04.2012 02:00 15,8 C 7,4 C 0,0 UV-I 0,0 C 43 % 79 % 0 % 1008,1 hPa 0,1 l/m 8,1 km/h (2 Bft) 0,00 h 0,57 h 15,2 km/h (3 Bft)
09.04.2012 03:00 15,6 C 6,5 C 0,0 UV-I 0,0 C 46 % 87 % 0 % 1007,1 hPa 0,6 l/m 6,3 km/h (2 Bft) 0,00 h 0,63 h 13,0 km/h (3 Bft)
09.04.2012 04:00 15,4 C 6,3 C 0,0 UV-I 0,0 C 48 % 90 % 0 % 1006,3 hPa 0,5 l/m 4,4 km/h (1 Bft) 0,00 h 0,70 h 8,9 km/h (2 Bft)
09.04.2012 05:00 15,4 C 6,5 C 0,0 UV-I 0,0 C 49 % 92 % 0 % 1005,6 hPa 1,0 l/m 1,9 km/h (1 Bft) 0,00 h 0,90 h 4,6 km/h (1 Bft)
09.04.2012 06:00 15,4 C 6,8 C 0,0 UV-I 0,0 C 50 % 93 % 0 % 1004,9 hPa 0,5 l/m 5,3 km/h (1 Bft) 0,00 h 0,73 h 11,3 km/h (2 Bft)
09.04.2012 07:00 15,2 C 7,0 C 0,0 UV-I 0,0 C 52 % 94 % 0 % 1004,3 hPa 0,5 l/m 6,5 km/h (2 Bft) 0,00 h 0,37 h 12,3 km/h (3 Bft)
09.04.2012 08:00 15,2 C 7,3 C 0,0 UV-I 0,0 C 52 % 95 % 0 % 1004,0 hPa 0,5 l/m 5,4 km/h (1 Bft) 0,00 h 0,50 h 10,6 km/h (2 Bft)
09.04.2012 09:00 15,3 C 7,8 C 0,0 UV-I 0,0 C 54 % 95 % 0 % 1003,6 hPa 0,4 l/m 5,7 km/h (1 Bft) 0,00 h 0,40 h 10,9 km/h (2 Bft)
09.04.2012 10:00 15,5 C 8,7 C 0,0 UV-I 0,4 C 55 % 95 % 11 % 1003,3 hPa 0,1 l/m 6,7 km/h (2 Bft) 0,00 h 0,17 h 12,3 km/h (3 Bft)
09.04.2012 11:00 15,9 C 9,9 C 0,1 UV-I 1,4 C 55 % 94 % 41 % 1003,3 hPa 0,0 l/m 6,6 km/h (2 Bft) 0,00 h 0,07 h 12,2 km/h (2 Bft)
09.04.2012 12:00 16,1 C 10,5 C 0,1 UV-I 1,0 C 54 % 91 % 29 % 1002,9 hPa 0,0 l/m 7,2 km/h (2 Bft) 0,00 h 0,00 h 11,2 km/h (2 Bft)
09.04.2012 13:00 16,3 C 10,8 C 0,1 UV-I 0,8 C 53 % 87 % 24 % 1002,4 hPa 0,0 l/m 8,8 km/h (2 Bft) 0,00 h 0,00 h 15,1 km/h (3 Bft)
09.04.2012 14:00 16,4 C 10,5 C 0,3 UV-I 0,6 C 54 % 87 % 18 % 1002,0 hPa 0,0 l/m 8,2 km/h (2 Bft) 0,00 h 0,17 h 12,7 km/h (3 Bft)
09.04.2012 15:00 16,5 C 10,8 C 0,1 UV-I 0,2 C 54 % 88 % 5 % 1001,5 hPa 0,2 l/m 6,7 km/h (2 Bft) 0,00 h 0,43 h 12,3 km/h (3 Bft)
09.04.2012 16:00 16,4 C 10,6 C 0,0 UV-I 0,0 C 55 % 90 % 0 % 1000,7 hPa 0,2 l/m 5,4 km/h (1 Bft) 0,00 h 0,42 h 9,9 km/h (2 Bft)
09.04.2012 17:00 16,6 C 10,6 C 0,0 UV-I 0,0 C 57 % 92 % 0 % 1000,2 hPa 0,5 l/m 5,9 km/h (2 Bft) 0,00 h 0,30 h 7,1 km/h (2 Bft)
09.04.2012 18:00 16,9 C 10,5 C 0,0 UV-I 0,0 C 57 % 92 % 0 % 999,9 hPa 1,0 l/m 4,8 km/h (1 Bft) 0,00 h 0,37 h 7,1 km/h (2 Bft)
09.04.2012 19:00 16,3 C 10,1 C 0,0 UV-I 0,0 C 59 % 93 % 0 % 999,3 hPa 0,7 l/m 4,1 km/h (1 Bft) 0,00 h 0,23 h 7,6 km/h (2 Bft)
09.04.2012 20:00 15,9 C 9,9 C 0,0 UV-I 0,0 C 59 % 93 % 0 % 999,0 hPa 0,5 l/m 5,6 km/h (1 Bft) 0,00 h 0,20 h 7,7 km/h (2 Bft)
09.04.2012 21:00 15,6 C 9,5 C 0,0 UV-I 0,0 C 60 % 94 % 0 % 998,7 hPa 0,2 l/m 6,9 km/h (2 Bft) 0,00 h 0,23 h 8,9 km/h (2 Bft)
09.04.2012 22:00 15,3 C 9,2 C 0,0 UV-I 0,0 C 60 % 94 % 0 % 998,2 hPa 0,2 l/m 4,3 km/h (1 Bft) 0,00 h 0,10 h 5,5 km/h (1 Bft)
09.04.2012 23:00 15,4 C 9,2 C 0,0 UV-I 0,0 C 60 % 94 % 0 % 997,6 hPa 0,1 l/m 5,0 km/h (1 Bft) 0,00 h 0,17 h 8,1 km/h (2 Bft)
10.04.2012 00:00 15,4 C 9,2 C 0,0 UV-I 0,0 C 60 % 94 % 0 % 996,9 hPa 0,2 l/m 6,0 km/h (2 Bft) 0,00 h 0,33 h 7,2 km/h (2 Bft)
10.04.2012 01:00 15,2 C 9,3 C 0,0 UV-I 0,0 C 60 % 95 % 0 % 996,4 hPa 0,6 l/m 5,7 km/h (1 Bft) 0,00 h 0,40 h 7,1 km/h (2 Bft)
10.04.2012 02:00 15,2 C 9,5 C 0,0 UV-I 0,0 C 61 % 94 % 0 % 995,9 hPa 0,2 l/m 5,7 km/h (1 Bft) 0,00 h 0,23 h 7,9 km/h (2 Bft)
10.04.2012 03:00 15,1 C 9,7 C 0,0 UV-I 0,0 C 61 % 94 % 0 % 995,2 hPa 0,1 l/m 5,4 km/h (1 Bft) 0,00 h 0,03 h 9,3 km/h (2 Bft)
10.04.2012 04:00 15,1 C 10,3 C 0,0 UV-I 0,0 C 60 % 91 % 0 % 994,4 hPa 0,0 l/m 7,3 km/h (2 Bft) 0,00 h 0,00 h 11,1 km/h (2 Bft)
10.04.2012 05:00 15,2 C 10,5 C 0,0 UV-I 0,0 C 59 % 89 % 0 % 993,7 hPa 0,0 l/m 6,7 km/h (2 Bft) 0,00 h 0,00 h 8,7 km/h (2 Bft)
10.04.2012 06:00 15,0 C 10,8 C 0,0 UV-I 0,0 C 59 % 86 % 0 % 993,3 hPa 0,0 l/m 9,3 km/h (2 Bft) 0,00 h 0,00 h 13,4 km/h (3 Bft)
10.04.2012 07:00 14,9 C 10,9 C 0,0 UV-I 0,0 C 59 % 85 % 0 % 993,7 hPa 0,0 l/m 9,8 km/h (2 Bft) 0,00 h 0,00 h 14,1 km/h (3 Bft)
10.04.2012 08:00 15,0 C 10,9 C 0,0 UV-I 0,0 C 59 % 85 % 0 % 993,7 hPa 0,0 l/m 7,8 km/h (2 Bft) 0,00 h 0,00 h 11,4 km/h (2 Bft)
10.04.2012 09:00 15,1 C 11,2 C 0,0 UV-I 0,0 C 59 % 84 % 1 % 993,5 hPa 0,0 l/m 8,2 km/h (2 Bft) 0,00 h 0,00 h 12,0 km/h (2 Bft)
10.04.2012 10:00 15,2 C 11,5 C 0,2 UV-I 1,2 C 59 % 84 % 35 % 993,9 hPa 0,0 l/m 9,1 km/h (2 Bft) 0,00 h 0,00 h 11,0 km/h (2 Bft)
10.04.2012 11:00 15,5 C 11,9 C 0,2 UV-I 0,9 C 59 % 82 % 25 % 994,3 hPa 0,0 l/m 9,4 km/h (2 Bft) 0,00 h 0,03 h 10,7 km/h (2 Bft)
10.04.2012 12:00 15,7 C 11,4 C 0,0 UV-I 0,3 C 60 % 86 % 9 % 994,6 hPa 0,1 l/m 6,4 km/h (2 Bft) 0,00 h 0,17 h 7,0 km/h (2 Bft)
10.04.2012 13:00 15,8 C 11,5 C 0,0 UV-I 0,1 C 60 % 87 % 3 % 994,4 hPa 0,0 l/m 5,9 km/h (2 Bft) 0,00 h 0,10 h 10,8 km/h (2 Bft)
10.04.2012 14:00 15,8 C 12,0 C 0,1 UV-I 0,4 C 59 % 83 % 11 % 994,4 hPa 0,2 l/m 7,6 km/h (2 Bft) 0,00 h 0,17 h 11,0 km/h (2 Bft)
10.04.2012 15:00 15,9 C 11,8 C 0,2 UV-I 0,5 C 60 % 86 % 13 % 994,4 hPa 0,0 l/m 5,5 km/h (1 Bft) 0,00 h 0,03 h 8,7 km/h (2 Bft)
10.04.2012 16:00 16,4 C 13,2 C 0,3 UV-I 1,5 C 58 % 80 % 44 % 994,1 hPa 0,0 l/m 7,5 km/h (2 Bft) 0,07 h 0,00 h 10,7 km/h (2 Bft)
10.04.2012 17:00 16,6 C 13,4 C 0,1 UV-I 1,1 C 57 % 77 % 31 % 993,2 hPa 0,0 l/m 2,7 km/h (1 Bft) 0,00 h 0,00 h 4,0 km/h (1 Bft)
10.04.2012 18:00 16,6 C 13,6 C 0,0 UV-I 0,3 C 57 % 77 % 9 % 992,6 hPa 0,0 l/m 2,0 km/h (1 Bft) 0,00 h 0,00 h 3,7 km/h (1 Bft)
10.04.2012 19:00 16,4 C 13,3 C 0,0 UV-I 0,0 C 58 % 76 % 0 % 992,3 hPa 0,2 l/m 9,2 km/h (2 Bft) 0,00 h 0,20 h 12,2 km/h (2 Bft)
10.04.2012 20:00 16,2 C 9,8 C 0,0 UV-I 0,0 C 59 % 87 % 0 % 993,8 hPa 0,5 l/m 3,3 km/h (1 Bft) 0,00 h 0,10 h 4,5 km/h (1 Bft)
10.04.2012 21:00 16,0 C 8,9 C 0,0 UV-I 0,0 C 60 % 91 % 0 % 994,2 hPa 0,0 l/m 0,2 km/h (0 Bft) 0,00 h 0,00 h 0,0 km/h (0 Bft)
10.04.2012 22:00 15,8 C 8,7 C 0,0 UV-I 0,0 C 61 % 92 % 0 % 994,3 hPa 1,2 l/m 0,1 km/h (0 Bft) 0,00 h 0,33 h 0,0 km/h (0 Bft)
10.04.2012 23:00 15,8 C 8,4 C 0,0 UV-I 0,0 C 62 % 93 % 0 % 994,8 hPa 2,2 l/m 0,3 km/h (0 Bft) 0,00 h 0,00 h 0,8 km/h (0 Bft)
11.04.2012 00:00 15,7 C 8,3 C 0,0 UV-I 0,0 C 62 % 94 % 0 % 994,9 hPa 0,6 l/m 0,3 km/h (0 Bft) 0,00 h 0,00 h 0,0 km/h (0 Bft)
11.04.2012 01:00 15,6 C 8,2 C 0,0 UV-I 0,0 C 61 % 95 % 0 % 995,4 hPa 0,4 l/m 0,3 km/h (0 Bft) 0,00 h 0,03 h 0,4 km/h (0 Bft)
11.04.2012 02:00 15,5 C 8,2 C 0,0 UV-I 0,0 C 61 % 95 % 0 % 995,3 hPa 0,0 l/m 0,9 km/h (0 Bft) 0,00 h 0,00 h 2,0 km/h (1 Bft)
11.04.2012 03:00 15,4 C 8,0 C 0,0 UV-I 0,0 C 61 % 95 % 0 % 995,9 hPa 0,0 l/m 0,8 km/h (0 Bft) 0,00 h 0,00 h 2,0 km/h (1 Bft)
11.04.2012 04:00 15,3 C 7,8 C 0,0 UV-I 0,0 C 61 % 95 % 0 % 996,1 hPa 0,0 l/m 1,8 km/h (1 Bft) 0,00 h 0,00 h 3,7 km/h (1 Bft)
11.04.2012 05:00 15,2 C 7,4 C 0,0 UV-I 0,0 C 60 % 95 % 0 % 996,3 hPa 0,0 l/m 1,6 km/h (1 Bft) 0,00 h 0,00 h 2,9 km/h (1 Bft)
11.04.2012 06:00 15,2 C 6,6 C 0,0 UV-I 0,0 C 58 % 95 % 0 % 996,7 hPa 0,0 l/m 1,7 km/h (1 Bft) 0,00 h 0,00 h 3,6 km/h (1 Bft)
11.04.2012 07:00 15,0 C 6,0 C 0,0 UV-I 0,0 C 57 % 95 % 0 % 997,4 hPa 0,0 l/m 2,5 km/h (1 Bft) 0,00 h 0,00 h 3,7 km/h (1 Bft)
11.04.2012 08:00 14,9 C 6,5 C 0,0 UV-I 0,7 C 55 % 95 % 21 % 998,1 hPa 0,0 l/m 3,2 km/h (1 Bft) 0,07 h 0,00 h 4,0 km/h (1 Bft)
11.04.2012 09:00 15,2 C 7,8 C 0,2 UV-I 3,4 C 55 % 93 % 93 % 998,6 hPa 0,0 l/m 6,2 km/h (2 Bft) 0,37 h 0,00 h 10,2 km/h (2 Bft)
11.04.2012 10:00 15,7 C 8,6 C 0,5 UV-I 2,8 C 54 % 90 % 80 % 999,4 hPa 0,0 l/m 6,3 km/h (2 Bft) 0,23 h 0,00 h 8,9 km/h (2 Bft)
11.04.2012 11:00 16,1 C 9,9 C 2,0 UV-I 5,0 C 52 % 84 % 96 % 1000,0 hPa 0,0 l/m 7,2 km/h (2 Bft) 0,40 h 0,00 h 12,0 km/h (2 Bft)
11.04.2012 12:00 16,5 C 11,6 C 2,8 UV-I 6,6 C 51 % 76 % 100 % 1000,2 hPa 0,0 l/m 6,3 km/h (2 Bft) 0,72 h 0,00 h 9,2 km/h (2 Bft)
11.04.2012 13:00 17,2 C 12,3 C 1,6 UV-I 3,3 C 47 % 65 % 83 % 1000,2 hPa 0,0 l/m 8,0 km/h (2 Bft) 0,57 h 0,00 h 13,4 km/h (3 Bft)
11.04.2012 14:00 18,3 C 13,9 C 3,5 UV-I 6,2 C 42 % 58 % 100 % 1001,7 hPa 0,0 l/m 9,0 km/h (2 Bft) 1,00 h 0,00 h 13,7 km/h (3 Bft)
11.04.2012 15:00 19,9 C 14,5 C 3,3 UV-I 5,0 C 37 % 52 % 100 % 1002,0 hPa 0,0 l/m 7,1 km/h (2 Bft) 1,00 h 0,00 h 11,9 km/h (2 Bft)
11.04.2012 16:00 20,8 C 14,9 C 3,7 UV-I 5,1 C 35 % 50 % 99 % 1002,3 hPa 0,1 l/m 7,2 km/h (2 Bft) 1,00 h 0,00 h 12,5 km/h (3 Bft)
11.04.2012 17:00 20,6 C 13,8 C 0,8 UV-I 1,8 C 35 % 54 % 48 % 1001,8 hPa 0,0 l/m 6,8 km/h (2 Bft) 0,23 h 0,00 h 12,5 km/h (3 Bft)
11.04.2012 18:00 19,5 C 12,5 C 0,5 UV-I 1,1 C 39 % 63 % 31 % 1000,2 hPa 0,0 l/m 5,3 km/h (1 Bft) 0,00 h 0,00 h 8,6 km/h (2 Bft)
11.04.2012 19:00 18,8 C 11,4 C 0,0 UV-I 0,1 C 40 % 66 % 3 % 1000,6 hPa 0,0 l/m 3,6 km/h (1 Bft) 0,00 h 0,00 h 6,7 km/h (2 Bft)
11.04.2012 20:00 18,0 C 10,0 C 0,0 UV-I 0,0 C 42 % 70 % 0 % 1000,9 hPa 0,0 l/m 0,7 km/h (0 Bft) 0,00 h 0,00 h 0,8 km/h (0 Bft)
11.04.2012 21:00 17,4 C 9,0 C 0,0 UV-I 0,0 C 45 % 75 % 0 % 1001,0 hPa 0,0 l/m 0,0 km/h (0 Bft) 0,00 h 0,00 h 0,0 km/h (0 Bft)
11.04.2012 22:00 17,2 C 8,8 C 0,0 UV-I 0,0 C 46 % 78 % 0 % 1001,0 hPa 0,0 l/m 0,0 km/h (0 Bft) 0,00 h 0,00 h 0,3 km/h (0 Bft)
11.04.2012 23:00 17,0 C 8,2 C 0,0 UV-I 0,0 C 47 % 80 % 0 % 1001,2 hPa 0,0 l/m 0,0 km/h (0 Bft) 0,00 h 0,00 h 0,0 km/h (0 Bft)
12.04.2012 00:00 16,7 C 7,4 C 0,0 UV-I 0,0 C 48 % 84 % 0 % 1001,4 hPa 0,0 l/m 0,0 km/h (0 Bft) 0,00 h 0,00 h 0,0 km/h (0 Bft)
12.04.2012 01:00 16,5 C 7,5 C 0,0 UV-I 0,0 C 49 % 86 % 0 % 1001,4 hPa 0,0 l/m 0,0 km/h (0 Bft) 0,00 h 0,00 h 0,0 km/h (0 Bft)
12.04.2012 02:00 16,5 C 7,2 C 0,0 UV-I 0,0 C 50 % 87 % 0 % 1001,3 hPa 0,0 l/m 0,0 km/h (0 Bft) 0,00 h 0,00 h 0,0 km/h (0 Bft)
12.04.2012 03:00 16,4 C 7,3 C 0,0 UV-I 0,0 C 50 % 87 % 0 % 1001,2 hPa 0,0 l/m 0,1 km/h (0 Bft) 0,00 h 0,37 h 1,0 km/h (0 Bft)
12.04.2012 04:00 16,4 C 7,4 C 0,0 UV-I 0,0 C 51 % 89 % 0 % 1001,2 hPa 0,0 l/m 0,3 km/h (0 Bft) 0,00 h 0,10 h 1,1 km/h (1 Bft)
12.04.2012 05:00 16,4 C 7,5 C 0,0 UV-I 0,0 C 51 % 90 % 0 % 1001,2 hPa 0,1 l/m 0,4 km/h (0 Bft) 0,00 h 0,13 h 1,4 km/h (1 Bft)
12.04.2012 06:00 16,3 C 7,3 C 0,0 UV-I 0,0 C 52 % 90 % 0 % 1001,3 hPa 0,0 l/m 0,0 km/h (0 Bft) 0,00 h 0,30 h 0,3 km/h (0 Bft)
12.04.2012 07:00 16,3 C 7,1 C 0,0 UV-I 0,0 C 52 % 91 % 0 % 1001,5 hPa 0,1 l/m 0,1 km/h (0 Bft) 0,00 h 0,00 h 0,6 km/h (0 Bft)
12.04.2012 08:00 16,2 C 7,1 C 0,0 UV-I 0,0 C 52 % 91 % 1 % 1001,8 hPa 0,0 l/m 0,6 km/h (0 Bft) 0,00 h 0,10 h 1,9 km/h (1 Bft)
12.04.2012 09:00 16,3 C 8,0 C 0,2 UV-I 2,0 C 52 % 92 % 57 % 1002,2 hPa 0,0 l/m 1,5 km/h (1 Bft) 0,23 h 0,00 h 4,4 km/h (1 Bft)
12.04.2012 10:00 16,4 C 8,7 C 0,1 UV-I 1,6 C 52 % 89 % 46 % 1002,4 hPa 0,0 l/m 1,1 km/h (0 Bft) 0,03 h 0,00 h 3,8 km/h (1 Bft)
12.04.2012 11:00 16,6 C 9,5 C 1,3 UV-I 3,9 C 52 % 86 % 87 % 1002,9 hPa 0,0 l/m 1,9 km/h (1 Bft) 0,67 h 0,00 h 4,5 km/h (1 Bft)
12.04.2012 12:00 16,9 C 10,3 C 1,1 UV-I 4,4 C 51 % 81 % 86 % 1002,5 hPa 0,5 l/m 3,6 km/h (1 Bft) 0,67 h 0,17 h 7,4 km/h (2 Bft)
12.04.2012 13:00 17,4 C 10,2 C 1,7 UV-I 2,7 C 51 % 80 % 57 % 1002,8 hPa 0,1 l/m 2,5 km/h (1 Bft) 0,50 h 0,00 h 4,5 km/h (1 Bft)
12.04.2012 14:00 18,3 C 10,5 C 0,9 UV-I 2,2 C 49 % 78 % 50 % 1003,4 hPa 0,1 l/m 10,3 km/h (2 Bft) 0,43 h 0,27 h 15,5 km/h (3 Bft)
12.04.2012 15:00 18,7 C 10,6 C 1,2 UV-I 2,6 C 48 % 75 % 72 % 1003,3 hPa 0,0 l/m 8,8 km/h (2 Bft) 0,30 h 0,00 h 14,8 km/h (3 Bft)
12.04.2012 16:00 18,3 C 10,4 C 0,0 UV-I 0,6 C 48 % 75 % 18 % 1002,9 hPa 0,0 l/m 1,8 km/h (1 Bft) 0,00 h 0,00 h 3,9 km/h (1 Bft)
12.04.2012 17:00 18,2 C 10,8 C 0,6 UV-I 2,6 C 49 % 77 % 69 % 1002,9 hPa 0,0 l/m 1,1 km/h (0 Bft) 0,47 h 0,00 h 2,9 km/h (1 Bft)
12.04.2012 18:00 18,4 C 11,0 C 0,1 UV-I 1,4 C 48 % 76 % 41 % 1003,0 hPa 0,0 l/m 2,3 km/h (1 Bft) 0,00 h 0,00 h 5,4 km/h (1 Bft)
12.04.2012 19:00 18,2 C 10,4 C 0,0 UV-I 0,0 C 46 % 72 % 1 % 1003,4 hPa 0,0 l/m 6,9 km/h (2 Bft) 0,00 h 0,00 h 14,2 km/h (3 Bft)
12.04.2012 20:00 17,4 C 8,3 C 0,0 UV-I 0,0 C 47 % 78 % 0 % 1003,5 hPa 0,0 l/m 1,4 km/h (1 Bft) 0,00 h 0,00 h 3,8 km/h (1 Bft)
12.04.2012 21:00 16,8 C 6,9 C 0,0 UV-I 0,0 C 48 % 83 % 0 % 1003,8 hPa 0,0 l/m 0,0 km/h (0 Bft) 0,00 h 0,00 h 0,3 km/h (0 Bft)
12.04.2012 22:00 16,4 C 6,1 C 0,0 UV-I 0,0 C 48 % 86 % 0 % 1004,1 hPa 0,0 l/m 0,0 km/h (0 Bft) 0,00 h 0,00 h 0,0 km/h (0 Bft)
12.04.2012 23:00 16,0 C 6,2 C 0,0 UV-I 0,0 C 49 % 89 % 0 % 1004,2 hPa 0,0 l/m 0,0 km/h (0 Bft) 0,00 h 0,00 h 0,1 km/h (0 Bft)
13.04.2012 00:00 15,9 C 6,0 C 0,0 UV-I 0,0 C 49 % 89 % 0 % 1004,4 hPa 0,0 l/m 0,2 km/h (0 Bft) 0,00 h 0,00 h 0,9 km/h (0 Bft)
13.04.2012 01:00 15,6 C 5,3 C 0,0 UV-I 0,0 C 50 % 90 % 0 % 1004,5 hPa 0,0 l/m 0,0 km/h (0 Bft) 0,00 h 0,00 h 0,0 km/h (0 Bft)
13.04.2012 02:00 15,6 C 5,4 C 0,0 UV-I 0,0 C 50 % 91 % 0 % 1004,6 hPa 0,0 l/m 0,0 km/h (0 Bft) 0,00 h 0,00 h 0,0 km/h (0 Bft)
13.04.2012 03:00 15,4 C 5,3 C 0,0 UV-I 0,0 C 50 % 91 % 0 % 1004,6 hPa 0,0 l/m 0,1 km/h (0 Bft) 0,00 h 0,00 h 0,8 km/h (0 Bft)
13.04.2012 04:00 15,3 C 4,6 C 0,0 UV-I 0,0 C 50 % 92 % 0 % 1004,3 hPa 0,0 l/m 0,0 km/h (0 Bft) 0,00 h 0,00 h 0,0 km/h (0 Bft)
13.04.2012 05:00 15,2 C 4,1 C 0,0 UV-I 0,0 C 50 % 92 % 0 % 1004,3 hPa 0,0 l/m 0,0 km/h (0 Bft) 0,00 h 0,00 h 0,0 km/h (0 Bft)
13.04.2012 06:00 15,1 C 3,3 C 0,0 UV-I 0,0 C 50 % 93 % 0 % 1004,5 hPa 0,0 l/m 0,0 km/h (0 Bft) 0,00 h 0,00 h 0,0 km/h (0 Bft)
13.04.2012 07:00 15,0 C 3,4 C 0,0 UV-I 0,0 C 50 % 94 % 0 % 1004,8 hPa 0,0 l/m 0,5 km/h (0 Bft) 0,00 h 0,00 h 2,0 km/h (1 Bft)
13.04.2012 08:00 15,1 C 4,0 C 0,0 UV-I 0,1 C 51 % 96 % 3 % 1005,3 hPa 0,0 l/m 1,8 km/h (1 Bft) 0,00 h 0,00 h 5,1 km/h (1 Bft)
13.04.2012 09:00 15,2 C 5,0 C 0,0 UV-I 0,6 C 52 % 96 % 18 % 1005,9 hPa 0,0 l/m 1,3 km/h (1 Bft) 0,00 h 0,00 h 2,9 km/h (1 Bft)
13.04.2012 10:00 15,3 C 5,6 C 0,0 UV-I 1,2 C 52 % 96 % 34 % 1006,2 hPa 0,0 l/m 1,1 km/h (0 Bft) 0,00 h 0,00 h 4,1 km/h (1 Bft)
13.04.2012 11:00 15,5 C 6,6 C 0,2 UV-I 1,9 C 51 % 94 % 53 % 1006,5 hPa 0,0 l/m 1,9 km/h (1 Bft) 0,00 h 0,00 h 4,8 km/h (1 Bft)
13.04.2012 12:00 15,7 C 7,6 C 0,6 UV-I 3,5 C 51 % 91 % 90 % 1006,6 hPa 0,0 l/m 2,7 km/h (1 Bft) 0,63 h 0,00 h 7,5 km/h (2 Bft)
13.04.2012 13:00 16,4 C 9,3 C 2,3 UV-I 7,1 C 50 % 86 % 100 % 1006,8 hPa 0,0 l/m 3,3 km/h (1 Bft) 1,00 h 0,00 h 7,3 km/h (2 Bft)
13.04.2012 14:00 17,8 C 10,6 C 2,8 UV-I 6,8 C 47 % 77 % 100 % 1007,6 hPa 0,0 l/m 6,3 km/h (2 Bft) 1,00 h 0,00 h 12,3 km/h (3 Bft)
13.04.2012 15:00 19,4 C 11,2 C 2,2 UV-I 5,0 C 44 % 71 % 100 % 1007,5 hPa 0,0 l/m 7,2 km/h (2 Bft) 1,00 h 0,00 h 11,2 km/h (2 Bft)
13.04.2012 16:00 19,9 C 11,7 C 1,7 UV-I 4,4 C 43 % 67 % 97 % 1007,3 hPa 0,0 l/m 5,2 km/h (1 Bft) 0,93 h 0,00 h 9,0 km/h (2 Bft)
13.04.2012 17:00 20,2 C 12,9 C 1,5 UV-I 5,4 C 42 % 61 % 100 % 1007,1 hPa 0,0 l/m 4,2 km/h (1 Bft) 1,00 h 0,00 h 7,4 km/h (2 Bft)
13.04.2012 18:00 19,8 C 12,6 C 0,4 UV-I 2,4 C 42 % 60 % 65 % 1005,8 hPa 0,0 l/m 3,5 km/h (1 Bft) 0,47 h 0,00 h 5,7 km/h (1 Bft)
13.04.2012 19:00 18,9 C 11,7 C 0,0 UV-I 0,0 C 43 % 64 % 0 % 1005,0 hPa 0,0 l/m 0,6 km/h (0 Bft) 0,00 h 0,00 h 2,1 km/h (1 Bft)
13.04.2012 20:00 18,0 C 10,4 C 0,0 UV-I 0,0 C 45 % 70 % 0 % 1004,9 hPa 0,0 l/m 0,6 km/h (0 Bft) 0,00 h 0,00 h 1,9 km/h (1 Bft)
13.04.2012 21:00 17,4 C 8,7 C 0,0 UV-I 0,0 C 48 % 77 % 0 % 1005,1 hPa 0,0 l/m 0,6 km/h (0 Bft) 0,00 h 0,00 h 0,9 km/h (0 Bft)
13.04.2012 22:00 16,9 C 6,9 C 0,0 UV-I 0,0 C 49 % 82 % 0 % 1005,1 hPa 0,0 l/m 0,0 km/h (0 Bft) 0,00 h 0,00 h 0,0 km/h (0 Bft)
13.04.2012 23:00 16,7 C 6,0 C 0,0 UV-I 0,0 C 49 % 86 % 0 % 1004,8 hPa 0,0 l/m 0,0 km/h (0 Bft) 0,00 h 0,00 h 0,0 km/h (0 Bft)
14.04.2012 00:00 16,5 C 5,9 C 0,0 UV-I 0,0 C 50 % 88 % 0 % 1004,8 hPa 0,0 l/m 0,0 km/h (0 Bft) 0,00 h 0,00 h 0,0 km/h (0 Bft)
14.04.2012 01:00 16,4 C 6,0 C 0,0 UV-I 0,0 C 50 % 90 % 0 % 1004,8 hPa 0,0 l/m 0,0 km/h (0 Bft) 0,00 h 0,00 h 0,3 km/h (0 Bft)
14.04.2012 02:00 16,3 C 6,4 C 0,0 UV-I 0,0 C 50 % 91 % 0 % 1004,6 hPa 0,0 l/m 0,0 km/h (0 Bft) 0,00 h 0,00 h 0,0 km/h (0 Bft)
14.04.2012 03:00 16,2 C 6,7 C 0,0 UV-I 0,0 C 51 % 92 % 0 % 1004,2 hPa 0,0 l/m 1,9 km/h (1 Bft) 0,00 h 0,23 h 3,8 km/h (1 Bft)
14.04.2012 04:00 16,3 C 6,5 C 0,0 UV-I 0,0 C 52 % 92 % 0 % 1004,1 hPa 0,1 l/m 1,0 km/h (0 Bft) 0,00 h 0,23 h 1,8 km/h (1 Bft)
14.04.2012 05:00 16,2 C 6,3 C 0,0 UV-I 0,0 C 52 % 94 % 0 % 1004,2 hPa 0,0 l/m 1,3 km/h (1 Bft) 0,00 h 0,00 h 2,1 km/h (1 Bft)
14.04.2012 06:00 16,2 C 6,2 C 0,0 UV-I 0,0 C 52 % 94 % 0 % 1004,0 hPa 0,0 l/m 0,7 km/h (0 Bft) 0,00 h 0,00 h 2,1 km/h (1 Bft)
14.04.2012 07:00 16,1 C 6,0 C 0,0 UV-I 0,0 C 52 % 94 % 0 % 1004,2 hPa 0,0 l/m 0,0 km/h (0 Bft) 0,00 h 0,00 h 0,1 km/h (0 Bft)
14.04.2012 08:00 16,1 C 6,4 C 0,0 UV-I 0,4 C 53 % 95 % 12 % 1004,5 hPa 0,0 l/m 1,9 km/h (1 Bft) 0,00 h 0,00 h 4,2 km/h (1 Bft)
14.04.2012 09:00 16,3 C 7,7 C 0,4 UV-I 3,4 C 53 % 93 % 77 % 1004,7 hPa 0,0 l/m 3,0 km/h (1 Bft) 0,57 h 0,00 h 6,5 km/h (2 Bft)
14.04.2012 10:00 16,6 C 9,2 C 0,4 UV-I 2,7 C 53 % 87 % 74 % 1005,3 hPa 0,0 l/m 7,5 km/h (2 Bft) 0,20 h 0,00 h 10,7 km/h (2 Bft)
14.04.2012 11:00 16,8 C 10,3 C 1,5 UV-I 4,4 C 53 % 84 % 90 % 1005,5 hPa 0,0 l/m 10,1 km/h (2 Bft) 0,70 h 0,00 h 15,6 km/h (3 Bft)
14.04.2012 12:00 17,2 C 11,3 C 1,6 UV-I 4,5 C 52 % 80 % 94 % 1005,7 hPa 0,0 l/m 10,3 km/h (2 Bft) 0,87 h 0,00 h 14,0 km/h (3 Bft)
14.04.2012 13:00 17,4 C 11,3 C 0,5 UV-I 1,6 C 51 % 78 % 47 % 1005,5 hPa 0,0 l/m 12,6 km/h (3 Bft) 0,07 h 0,00 h 18,3 km/h (3 Bft)
14.04.2012 14:00 17,2 C 11,0 C 0,2 UV-I 0,7 C 52 % 78 % 20 % 1005,4 hPa 0,0 l/m 10,6 km/h (2 Bft) 0,00 h 0,30 h 16,9 km/h (3 Bft)
14.04.2012 15:00 17,5 C 11,8 C 1,4 UV-I 2,6 C 52 % 74 % 75 % 1005,7 hPa 0,0 l/m 13,7 km/h (3 Bft) 0,40 h 0,00 h 19,4 km/h (3 Bft)
14.04.2012 16:00 19,3 C 12,5 C 1,7 UV-I 3,8 C 47 % 69 % 99 % 1007,0 hPa 0,0 l/m 14,7 km/h (3 Bft) 1,00 h 0,00 h 20,9 km/h (4 Bft)
14.04.2012 17:00 20,1 C 12,7 C 0,8 UV-I 3,4 C 45 % 66 % 90 % 1007,0 hPa 0,0 l/m 11,8 km/h (2 Bft) 0,73 h 0,00 h 16,8 km/h (3 Bft)
14.04.2012 18:00 19,5 C 12,0 C 0,2 UV-I 1,2 C 46 % 66 % 33 % 1006,1 hPa 0,0 l/m 10,6 km/h (2 Bft) 0,00 h 0,00 h 14,5 km/h (3 Bft)
14.04.2012 19:00 18,8 C 11,6 C 0,0 UV-I 0,1 C 47 % 66 % 2 % 1005,8 hPa 0,0 l/m 11,6 km/h (2 Bft) 0,00 h 0,00 h 15,0 km/h (3 Bft)
14.04.2012 20:00 18,0 C 10,5 C 0,0 UV-I 0,0 C 48 % 70 % 0 % 1006,0 hPa 0,0 l/m 11,7 km/h (2 Bft) 0,00 h 0,00 h 15,3 km/h (3 Bft)
14.04.2012 21:00 17,4 C 9,1 C 0,0 UV-I 0,0 C 50 % 77 % 0 % 1006,6 hPa 0,0 l/m 8,1 km/h (2 Bft) 0,00 h 0,00 h 10,8 km/h (2 Bft)
14.04.2012 22:00 17,0 C 8,4 C 0,0 UV-I 0,0 C 51 % 80 % 0 % 1006,9 hPa 0,0 l/m 6,1 km/h (2 Bft) 0,00 h 0,00 h 9,3 km/h (2 Bft)
14.04.2012 23:00 16,8 C 7,8 C 0,0 UV-I 0,0 C 51 % 82 % 0 % 1007,1 hPa 0,0 l/m 7,0 km/h (2 Bft) 0,00 h 0,00 h 10,2 km/h (2 Bft)
15.04.2012 00:00 16,7 C 7,4 C 0,0 UV-I 0,0 C 51 % 84 % 0 % 1007,4 hPa 0,0 l/m 6,5 km/h (2 Bft) 0,00 h 0,00 h 11,0 km/h (2 Bft)
15.04.2012 01:00 16,6 C 7,2 C 0,0 UV-I 0,0 C 51 % 85 % 0 % 1007,6 hPa 0,0 l/m 9,3 km/h (2 Bft) 0,00 h 0,00 h 16,8 km/h (3 Bft)
15.04.2012 02:00 16,4 C 7,1 C 0,0 UV-I 0,0 C 51 % 86 % 0 % 1007,8 hPa 0,0 l/m 12,4 km/h (3 Bft) 0,00 h 0,00 h 17,9 km/h (3 Bft)
15.04.2012 03:00 16,4 C 7,0 C 0,0 UV-I 0,0 C 51 % 86 % 0 % 1007,9 hPa 0,0 l/m 12,7 km/h (3 Bft) 0,00 h 0,33 h 18,3 km/h (3 Bft)
15.04.2012 04:00 16,3 C 6,3 C 0,0 UV-I 0,0 C 52 % 90 % 0 % 1008,3 hPa 2,0 l/m 11,3 km/h (2 Bft) 0,00 h 1,00 h 14,5 km/h (3 Bft)
15.04.2012 05:00 16,3 C 5,9 C 0,0 UV-I 0,0 C 52 % 93 % 0 % 1008,8 hPa 2,5 l/m 8,7 km/h (2 Bft) 0,00 h 1,00 h 11,5 km/h (2 Bft)
15.04.2012 06:00 16,2 C 5,6 C 0,0 UV-I 0,0 C 53 % 93 % 0 % 1009,3 hPa 0,9 l/m 10,5 km/h (2 Bft) 0,00 h 0,67 h 15,3 km/h (3 Bft)
15.04.2012 07:00 16,1 C 5,5 C 0,0 UV-I 0,0 C 53 % 94 % 0 % 1009,9 hPa 0,0 l/m 12,8 km/h (3 Bft) 0,00 h 0,00 h 18,4 km/h (3 Bft)
15.04.2012 08:00 15,9 C 5,5 C 0,0 UV-I 0,0 C 53 % 94 % 0 % 1010,4 hPa 0,0 l/m 14,8 km/h (3 Bft) 0,00 h 0,00 h 21,4 km/h (4 Bft)
15.04.2012 09:00 16,0 C 5,8 C 0,0 UV-I 0,0 C 53 % 93 % 0 % 1011,4 hPa 0,0 l/m 15,1 km/h (3 Bft) 0,00 h 0,00 h 22,8 km/h (4 Bft)
15.04.2012 10:00 16,2 C 6,3 C 0,0 UV-I 0,0 C 54 % 91 % 0 % 1012,1 hPa 0,0 l/m 17,2 km/h (3 Bft) 0,00 h 0,00 h 25,0 km/h (4 Bft)
15.04.2012 11:00 16,3 C 6,8 C 0,1 UV-I 0,1 C 55 % 89 % 2 % 1012,6 hPa 0,0 l/m 15,8 km/h (3 Bft) 0,00 h 0,03 h 21,1 km/h (4 Bft)
15.04.2012 12:00 16,3 C 6,9 C 0,1 UV-I 0,0 C 53 % 87 % 0 % 1012,9 hPa 0,0 l/m 16,1 km/h (3 Bft) 0,00 h 0,43 h 22,5 km/h (4 Bft)
15.04.2012 13:00 16,3 C 7,4 C 0,7 UV-I 0,5 C 53 % 86 % 16 % 1013,3 hPa 0,0 l/m 18,3 km/h (3 Bft) 0,00 h 0,07 h 25,8 km/h (4 Bft)
15.04.2012 14:00 16,6 C 8,3 C 0,9 UV-I 1,3 C 52 % 81 % 38 % 1013,7 hPa 0,0 l/m 18,5 km/h (3 Bft) 0,00 h 0,00 h 26,8 km/h (4 Bft)
15.04.2012 15:00 16,7 C 8,5 C 0,4 UV-I 0,5 C 51 % 79 % 15 % 1013,9 hPa 0,0 l/m 19,6 km/h (3 Bft) 0,00 h 0,00 h 30,0 km/h (5 Bft)
15.04.2012 16:00 16,6 C 8,4 C 0,2 UV-I 0,0 C 50 % 81 % 1 % 1013,9 hPa 0,0 l/m 18,2 km/h (3 Bft) 0,00 h 0,00 h 25,1 km/h (4 Bft)
15.04.2012 17:00 16,4 C 8,3 C 0,0 UV-I 0,0 C 53 % 77 % 0 % 1014,4 hPa 0,0 l/m 17,6 km/h (3 Bft) 0,00 h 0,00 h 25,4 km/h (4 Bft)
15.04.2012 18:00 16,3 C 8,3 C 0,0 UV-I 0,0 C 53 % 76 % 0 % 1014,7 hPa 0,0 l/m 16,2 km/h (3 Bft) 0,00 h 0,00 h 23,4 km/h (4 Bft)
15.04.2012 19:00 16,1 C 8,1 C 0,0 UV-I 0,0 C 52 % 74 % 0 % 1015,4 hPa 0,0 l/m 18,3 km/h (3 Bft) 0,00 h 0,00 h 28,4 km/h (4 Bft)
15.04.2012 20:00 15,9 C 7,6 C 0,0 UV-I 0,0 C 50 % 71 % 0 % 1016,2 hPa 0,0 l/m 18,2 km/h (3 Bft) 0,00 h 0,00 h 24,6 km/h (4 Bft)
15.04.2012 21:00 15,7 C 7,2 C 0,0 UV-I 0,0 C 48 % 72 % 0 % 1016,9 hPa 0,0 l/m 17,0 km/h (3 Bft) 0,00 h 0,00 h 24,5 km/h (4 Bft)
15.04.2012 22:00 15,6 C 6,2 C 0,0 UV-I 0,0 C 48 % 71 % 0 % 1017,7 hPa 0,0 l/m 19,2 km/h (3 Bft) 0,00 h 0,00 h 26,0 km/h (4 Bft)
15.04.2012 23:00 15,4 C 5,2 C 0,0 UV-I 0,0 C 48 % 75 % 0 % 1018,5 hPa 0,0 l/m 18,8 km/h (3 Bft) 0,00 h 0,00 h 27,8 km/h (4 Bft)
Min-Datum _ 10.04.12 13.04.12 09.04.12 09.04.12 11.04.12 11.04.12 09.04.12 10.04.12 - 10.04.12 - - 09.04.12
_ Min-Zeit 07:10 07:00 00:00 00:00 16:24 15:50 00:00 19:05 - 21:20 - - 00:56
Minimum _ 14,8 C 3,1 C 0,0 UV-I 0,0 C 35 % 49 % 0 % 992,1 hPa - 0,0 km/h (0 Bft) - - 0,0 km/h (0 Bft)
Max-Datum _ 11.04.12 11.04.12 11.04.12 13.04.12 10.04.12 13.04.12 11.04.12 15.04.12 15.04.12 15.04.12 10.04.12 09.04.12 15.04.12
_ Max-Zeit 16:52 16:48 15:22 13:58 22:55 08:08 08:55 23:44 05:18 23:36 16:00 01:54 15:04
Maximum _ 21,2 C 15,3 C 4,4 UV-I 9,7 C 62 % 96 % 100 % 1019,1 hPa 2,5 l/m 22,5 km/h
W (4 Bft)
0,03 h 0,03 h 48,2 km/h
W-SW (6 Bft)
Durchschnitt _ 16,5 C 8,8 C 0,3 UV-I 0,9 C 52 % 84 % 20 % 1003,1 hPa #21,4 l/m 5,8 km/h (2 Bft) #19:31 h #15:35 h 9,1 km/h (2 Bft)
© 2012 W. Hausmann